sensor_id;sensor_type;location;lat;lon;timestamp;pressure;altitude;pressure_sealevel;temperature;humidity
61136;BME280;47021;51.340;12.432;2024-01-15T07:00:23;98196.94;;;5.05;55.53
61136;BME280;47021;51.340;12.432;2024-01-15T07:02:56;98209.78;;;4.97;55.96
61136;BME280;47021;51.340;12.432;2024-01-15T07:08:05;98202.28;;;4.94;55.92
61136;BME280;47021;51.340;12.432;2024-01-15T07:13:26;98194.84;;;4.72;56.30
61136;BME280;47021;51.340;12.432;2024-01-15T07:18:32;98200.69;;;4.64;56.81
61136;BME280;47021;51.340;12.432;2024-01-15T07:20:58;98178.78;;;4.78;56.42
61136;BME280;47021;51.340;12.432;2024-01-15T07:26:09;98195.53;;;4.55;56.82
61136;BME280;47021;51.340;12.432;2024-01-15T07:31:28;98205.31;;;4.80;56.42
61136;BME280;47021;51.340;12.432;2024-01-15T07:34:07;98213.72;;;5.01;55.63
61136;BME280;47021;51.340;12.432;2024-01-15T07:36:33;98208.44;;;4.74;56.22
61136;BME280;47021;51.340;12.432;2024-01-15T07:38:59;98211.59;;;4.58;56.44
61136;BME280;47021;51.340;12.432;2024-01-15T07:41:25;98221.13;;;4.67;56.46
61136;BME280;47021;51.340;12.432;2024-01-15T07:44:03;98212.13;;;4.43;57.18
61136;BME280;47021;51.340;12.432;2024-01-15T07:46:29;98200.56;;;4.56;56.73
61136;BME280;47021;51.340;12.432;2024-01-15T07:48:54;98188.44;;;4.76;55.56
61136;BME280;47021;51.340;12.432;2024-01-15T07:54:05;98192.13;;;4.64;56.12
61136;BME280;47021;51.340;12.432;2024-01-15T08:18:54;98210.88;;;4.66;56.19
61136;BME280;47021;51.340;12.432;2024-01-15T08:30:12;98223.88;;;5.12;55.43
61136;BME280;47021;51.340;12.432;2024-01-15T12:19:54;98153.16;;;6.73;51.86
61136;BME280;47021;51.340;12.432;2024-01-15T12:38:23;98143.97;;;6.61;52.33
61136;BME280;47021;51.340;12.432;2024-01-15T12:41:06;98141.16;;;7.06;51.88
61136;BME280;47021;51.340;12.432;2024-01-15T12:43:51;98151.41;;;6.82;52.21
61136;BME280;47021;51.340;12.432;2024-01-15T12:46:18;98155.75;;;6.99;51.44
61136;BME280;47021;51.340;12.432;2024-01-15T12:48:55;98140.75;;;6.42;52.67
61136;BME280;47021;51.340;12.432;2024-01-15T12:51:37;98155.16;;;6.44;53.31
61136;BME280;47021;51.340;12.432;2024-01-15T12:59:31;98146.25;;;6.90;53.00
61136;BME280;47021;51.340;12.432;2024-01-15T13:02:08;98148.41;;;7.54;50.87
61136;BME280;47021;51.340;12.432;2024-01-15T13:04:54;98151.78;;;6.69;52.50
61136;BME280;47021;51.340;12.432;2024-01-15T13:07:36;98144.00;;;6.87;52.45
61136;BME280;47021;51.340;12.432;2024-01-15T13:10:19;98154.13;;;7.32;51.28
61136;BME280;47021;51.340;12.432;2024-01-15T13:12:51;98144.19;;;7.19;51.69
61136;BME280;47021;51.340;12.432;2024-01-15T13:15:17;98146.84;;;7.35;51.23
61136;BME280;47021;51.340;12.432;2024-01-15T13:17:44;98155.63;;;7.08;51.42
61136;BME280;47021;51.340;12.432;2024-01-15T13:20:47;98170.22;;;6.84;52.60
61136;BME280;47021;51.340;12.432;2024-01-15T13:23:21;98183.28;;;6.74;52.96
61136;BME280;47021;51.340;12.432;2024-01-15T13:26:23;98166.59;;;6.16;54.46
61136;BME280;47021;51.340;12.432;2024-01-15T13:28:53;98179.09;;;6.56;53.93
61136;BME280;47021;51.340;12.432;2024-01-15T13:31:47;98184.94;;;5.78;56.19
61136;BME280;47021;51.340;12.432;2024-01-15T13:34:23;98182.72;;;5.92;55.95
61136;BME280;47021;51.340;12.432;2024-01-15T13:45:38;98191.09;;;6.57;53.91
61136;BME280;47021;51.340;12.432;2024-01-15T14:04:48;98203.66;;;6.87;53.61
61136;BME280;47021;51.340;12.432;2024-01-15T14:40:44;98234.66;;;6.53;53.96
61136;BME280;47021;51.340;12.432;2024-01-15T14:45:53;98235.34;;;6.10;55.17
61136;BME280;47021;51.340;12.432;2024-01-15T14:51:29;98241.53;;;6.80;53.43
61136;BME280;47021;51.340;12.432;2024-01-15T14:54:02;98242.81;;;7.01;53.23
61136;BME280;47021;51.340;12.432;2024-01-15T14:56:29;98246.09;;;6.86;53.53
61136;BME280;47021;51.340;12.432;2024-01-15T14:59:30;98260.72;;;5.80;56.40
61136;BME280;47021;51.340;12.432;2024-01-15T15:04:53;98258.63;;;6.37;54.86
61136;BME280;47021;51.340;12.432;2024-01-15T15:07:21;98264.97;;;5.71;56.14
61136;BME280;47021;51.340;12.432;2024-01-15T15:09:47;98267.31;;;6.46;55.29
61136;BME280;47021;51.340;12.432;2024-01-15T15:12:14;98258.28;;;6.50;54.77
61136;BME280;47021;51.340;12.432;2024-01-15T15:14:40;98273.31;;;6.64;54.49
61136;BME280;47021;51.340;12.432;2024-01-15T15:17:06;98275.84;;;6.74;54.18
61136;BME280;47021;51.340;12.432;2024-01-15T15:19:37;98274.88;;;6.57;54.94
61136;BME280;47021;51.340;12.432;2024-01-15T15:22:20;98277.84;;;6.62;54.36
61136;BME280;47021;51.340;12.432;2024-01-15T15:24:48;98295.03;;;6.18;55.36
61136;BME280;47021;51.340;12.432;2024-01-15T15:27:15;98293.63;;;5.97;56.14
61136;BME280;47021;51.340;12.432;2024-01-15T15:30:00;98290.66;;;6.64;54.12
61136;BME280;47021;51.340;12.432;2024-01-15T15:32:26;98306.81;;;6.58;54.59
61136;BME280;47021;51.340;12.432;2024-01-15T15:34:52;98296.84;;;7.06;53.74
61136;BME280;47021;51.340;12.432;2024-01-15T15:37:18;98294.50;;;6.95;53.97
61136;BME280;47021;51.340;12.432;2024-01-15T15:39:50;98297.22;;;6.58;55.20
61136;BME280;47021;51.340;12.432;2024-01-15T15:42:15;98299.75;;;7.21;53.15
61136;BME280;47021;51.340;12.432;2024-01-15T15:44:46;98303.50;;;6.83;54.37
61136;BME280;47021;51.340;12.432;2024-01-15T16:48:54;98343.34;;;6.64;55.41
61136;BME280;47021;51.340;12.432;2024-01-15T18:34:38;98376.06;;;6.11;57.80
61136;BME280;47021;51.340;12.432;2024-01-15T18:40:22;98377.50;;;5.96;57.84
61136;BME280;47021;51.340;12.432;2024-01-15T18:43:07;98377.81;;;6.20;57.06
61136;BME280;47021;51.340;12.432;2024-01-15T18:48:23;98394.19;;;5.26;59.31
61136;BME280;47021;51.340;12.432;2024-01-15T18:53:36;98389.06;;;5.92;57.31
61136;BME280;47021;51.340;12.432;2024-01-15T19:18:23;98450.56;;;5.13;62.15
61136;BME280;47021;51.340;12.432;2024-01-15T19:20:54;98449.13;;;4.41;64.85
61136;BME280;47021;51.340;12.432;2024-01-15T19:34:35;98455.59;;;5.53;62.53
61136;BME280;47021;51.340;12.432;2024-01-15T19:37:00;98448.94;;;5.60;62.03
61136;BME280;47021;51.340;12.432;2024-01-15T19:39:32;98452.91;;;5.35;62.87
61136;BME280;47021;51.340;12.432;2024-01-15T19:42:03;98448.78;;;5.04;64.26
61136;BME280;47021;51.340;12.432;2024-01-15T19:44:30;98462.59;;;4.74;65.29
61136;BME280;47021;51.340;12.432;2024-01-15T19:47:01;98462.81;;;5.21;63.53
61136;BME280;47021;51.340;12.432;2024-01-15T19:49:29;98466.09;;;5.32;63.47
61136;BME280;47021;51.340;12.432;2024-01-15T19:51:55;98469.13;;;4.39;66.54
61136;BME280;47021;51.340;12.432;2024-01-15T19:54:28;98493.00;;;4.61;67.41
61136;BME280;47021;51.340;12.432;2024-01-15T19:56:55;98486.38;;;4.68;68.04
61136;BME280;47021;51.340;12.432;2024-01-15T19:59:22;98482.34;;;4.85;67.47
61136;BME280;47021;51.340;12.432;2024-01-15T20:01:49;98508.41;;;4.12;69.95
61136;BME280;47021;51.340;12.432;2024-01-15T20:04:32;98506.34;;;4.96;67.33
61136;BME280;47021;51.340;12.432;2024-01-15T20:07:06;98510.53;;;4.27;69.50
61136;BME280;47021;51.340;12.432;2024-01-15T20:09:32;98499.88;;;4.72;68.14
61136;BME280;47021;51.340;12.432;2024-01-15T20:11:57;98521.19;;;3.93;70.25
61136;BME280;47021;51.340;12.432;2024-01-15T20:14:24;98538.19;;;4.16;70.07
61136;BME280;47021;51.340;12.432;2024-01-15T20:16:49;98533.09;;;4.25;70.42
61136;BME280;47021;51.340;12.432;2024-01-15T20:21:58;98569.72;;;4.61;69.32
61136;BME280;47021;51.340;12.432;2024-01-15T20:24:31;98567.09;;;4.51;69.52
61136;BME280;47021;51.340;12.432;2024-01-15T20:27:09;98569.19;;;4.16;71.40
61136;BME280;47021;51.340;12.432;2024-01-15T20:29:36;98574.69;;;4.73;69.81
61136;BME280;47021;51.340;12.432;2024-01-15T20:32:01;98578.94;;;4.74;68.76
61136;BME280;47021;51.340;12.432;2024-01-15T20:34:27;98575.78;;;4.50;70.13
61136;BME280;47021;51.340;12.432;2024-01-15T20:36:53;98578.50;;;4.99;68.97
61136;BME280;47021;51.340;12.432;2024-01-15T20:39:18;98591.66;;;4.66;69.15
61136;BME280;47021;51.340;12.432;2024-01-15T20:41:44;98591.53;;;4.68;68.96
61136;BME280;47021;51.340;12.432;2024-01-15T20:44:09;98591.63;;;4.87;67.82
61136;BME280;47021;51.340;12.432;2024-01-15T20:46:41;98587.91;;;4.80;68.14
61136;BME280;47021;51.340;12.432;2024-01-15T20:49:14;98593.63;;;5.04;67.57
61136;BME280;47021;51.340;12.432;2024-01-15T20:51:40;98592.47;;;5.37;66.08
61136;BME280;47021;51.340;12.432;2024-01-15T20:54:14;98594.56;;;4.73;68.47
61136;BME280;47021;51.340;12.432;2024-01-15T20:56:40;98597.88;;;4.84;66.71
61136;BME280;47021;51.340;12.432;2024-01-15T20:59:06;98592.00;;;4.52;68.08
61136;BME280;47021;51.340;12.432;2024-01-15T21:01:33;98590.06;;;4.75;67.29
61136;BME280;47021;51.340;12.432;2024-01-15T21:03:58;98606.66;;;5.33;65.01
61136;BME280;47021;51.340;12.432;2024-01-15T21:06:25;98608.88;;;4.36;67.10
61136;BME280;47021;51.340;12.432;2024-01-15T21:08:53;98612.56;;;4.33;67.37
61136;BME280;47021;51.340;12.432;2024-01-15T21:11:18;98606.59;;;4.83;65.72
61136;BME280;47021;51.340;12.432;2024-01-15T21:13:45;98628.34;;;4.19;66.67
61136;BME280;47021;51.340;12.432;2024-01-15T21:16:20;98629.47;;;5.18;63.33
61136;BME280;47021;51.340;12.432;2024-01-15T21:18:47;98626.63;;;4.91;63.26
61136;BME280;47021;51.340;12.432;2024-01-15T21:21:18;98624.84;;;4.91;62.86
61136;BME280;47021;51.340;12.432;2024-01-15T21:23:43;98632.47;;;4.42;64.29
61136;BME280;47021;51.340;12.432;2024-01-15T21:26:09;98629.91;;;4.93;62.19
61136;BME280;47021;51.340;12.432;2024-01-15T21:28:36;98633.78;;;4.57;63.37
61136;BME280;47021;51.340;12.432;2024-01-15T21:33:51;98631.81;;;4.50;63.36
61136;BME280;47021;51.340;12.432;2024-01-15T21:36:23;98632.47;;;4.63;62.84
61136;BME280;47021;51.340;12.432;2024-01-15T21:38:54;98642.16;;;4.50;63.48
61136;BME280;47021;51.340;12.432;2024-01-15T21:41:28;98646.94;;;4.75;61.78
61136;BME280;47021;51.340;12.432;2024-01-15T21:43:58;98650.16;;;4.88;62.00
61136;BME280;47021;51.340;12.432;2024-01-15T21:46:30;98657.53;;;4.92;61.43
61136;BME280;47021;51.340;12.432;2024-01-15T21:49:01;98657.94;;;4.67;62.28
61136;BME280;47021;51.340;12.432;2024-01-15T21:51:28;98659.59;;;5.59;59.25
61136;BME280;47021;51.340;12.432;2024-01-15T21:54:15;98650.97;;;5.49;59.47
61136;BME280;47021;51.340;12.432;2024-01-15T21:56:47;98660.97;;;5.63;58.67
61136;BME280;47021;51.340;12.432;2024-01-15T22:01:43;98660.31;;;5.80;58.19
61136;BME280;47021;51.340;12.432;2024-01-15T22:04:16;98665.16;;;5.54;58.49
61136;BME280;47021;51.340;12.432;2024-01-15T22:06:42;98665.16;;;6.04;56.94
61136;BME280;47021;51.340;12.432;2024-01-15T22:09:13;98673.00;;;4.62;60.22
61136;BME280;47021;51.340;12.432;2024-01-15T22:11:39;98672.00;;;5.65;58.15
61136;BME280;47021;51.340;12.432;2024-01-15T22:14:04;98674.13;;;5.50;57.79
61136;BME280;47021;51.340;12.432;2024-01-15T22:16:32;98674.25;;;5.98;56.90
61136;BME280;47021;51.340;12.432;2024-01-15T22:21:51;98677.72;;;6.37;56.13
61136;BME280;47021;51.340;12.432;2024-01-15T22:24:23;98675.53;;;6.13;55.88
61136;BME280;47021;51.340;12.432;2024-01-15T22:29:43;98697.41;;;4.69;59.46
61136;BME280;47021;51.340;12.432;2024-01-15T22:32:10;98697.94;;;4.93;58.61
61136;BME280;47021;51.340;12.432;2024-01-15T22:34:42;98701.28;;;5.96;56.02
61136;BME280;47021;51.340;12.432;2024-01-15T22:37:14;98705.81;;;5.73;56.03
61136;BME280;47021;51.340;12.432;2024-01-15T22:39:45;98707.44;;;6.14;54.66
61136;BME280;47021;51.340;12.432;2024-01-15T22:42:17;98701.03;;;5.08;57.40
61136;BME280;47021;51.340;12.432;2024-01-15T22:45:00;98708.75;;;5.99;54.86
61136;BME280;47021;51.340;12.432;2024-01-15T22:47:37;98716.28;;;5.71;55.23
61136;BME280;47021;51.340;12.432;2024-01-15T22:50:03;98719.69;;;6.02;54.36
61136;BME280;47021;51.340;12.432;2024-01-15T22:52:36;98723.34;;;5.60;55.28
61136;BME280;47021;51.340;12.432;2024-01-15T22:57:39;98719.63;;;6.71;52.70
61136;BME280;47021;51.340;12.432;2024-01-15T23:00:05;98724.09;;;6.30;52.71
61136;BME280;47021;51.340;12.432;2024-01-15T23:02:44;98720.13;;;6.65;52.43
61136;BME280;47021;51.340;12.432;2024-01-15T23:05:10;98725.72;;;6.60;52.06
61136;BME280;47021;51.340;12.432;2024-01-15T23:07:36;98731.88;;;6.21;53.40
61136;BME280;47021;51.340;12.432;2024-01-15T23:10:17;98734.66;;;5.99;54.03
61136;BME280;47021;51.340;12.432;2024-01-15T23:12:42;98733.81;;;6.57;53.00
61136;BME280;47021;51.340;12.432;2024-01-15T23:15:13;98730.63;;;6.44;53.01
61136;BME280;47021;51.340;12.432;2024-01-15T23:17:44;98732.31;;;6.55;52.99
61136;BME280;47021;51.340;12.432;2024-01-15T23:20:10;98725.88;;;6.20;53.59
61136;BME280;47021;51.340;12.432;2024-01-15T23:25:34;98738.00;;;6.20;54.20
61136;BME280;47021;51.340;12.432;2024-01-15T23:28:16;98748.59;;;5.98;55.00
61136;BME280;47021;51.340;12.432;2024-01-15T23:30:57;98745.75;;;5.80;55.93
61136;BME280;47021;51.340;12.432;2024-01-15T23:33:29;98740.44;;;5.72;56.18
61136;BME280;47021;51.340;12.432;2024-01-15T23:36:06;98752.19;;;6.16;55.76
61136;BME280;47021;51.340;12.432;2024-01-15T23:41:28;98745.13;;;5.57;57.56
